createdAt,value
2018-09-18T00:00:37.030Z,1002.16
2018-09-18T00:01:37.041Z,1002.12
2018-09-18T00:02:37.011Z,1002.12
2018-09-18T00:03:36.987Z,1002.13
2018-09-18T00:04:36.977Z,1002.11
2018-09-18T00:05:36.975Z,1002.07
2018-09-18T00:06:36.981Z,1002.11
2018-09-18T00:07:36.945Z,1002.08
2018-09-18T00:08:36.934Z,1002.06
2018-09-18T00:09:36.924Z,1002.08
2018-09-18T00:10:36.917Z,1002.06
2018-09-18T00:11:36.926Z,1002.05
2018-09-18T00:12:36.902Z,1002.02
2018-09-18T00:13:36.882Z,1002.02
2018-09-18T00:14:36.863Z,1002.03
2018-09-18T00:15:36.853Z,1002.09
2018-09-18T00:16:36.853Z,1002.04
2018-09-18T00:17:36.858Z,1001.97
2018-09-18T00:18:36.826Z,1002.03
2018-09-18T00:19:36.806Z,1002.00
2018-09-18T00:20:36.799Z,1002.01
2018-09-18T00:21:36.789Z,1001.96
2018-09-18T00:22:36.781Z,1001.97
2018-09-18T00:23:36.789Z,1001.97
2018-09-18T00:24:36.749Z,1001.93
2018-09-18T00:25:36.749Z,1001.93
2018-09-18T00:26:36.758Z,1001.93
2018-09-18T00:27:36.720Z,1001.95
2018-09-18T00:28:36.707Z,1001.94
2018-09-18T00:29:36.723Z,1001.91
2018-09-18T00:30:36.683Z,1001.91
2018-09-18T00:31:36.670Z,1001.90
2018-09-18T00:32:36.659Z,1001.89
2018-09-18T00:33:36.658Z,1001.84
2018-09-18T00:34:36.641Z,1001.84
2018-09-18T00:35:36.695Z,1001.85
2018-09-18T00:36:36.618Z,1001.89
2018-09-18T00:37:36.604Z,1001.86
2018-09-18T00:38:36.596Z,1001.84
2018-09-18T00:39:36.581Z,1001.86
2018-09-18T00:40:36.599Z,1001.84
2018-09-18T00:41:36.556Z,1001.83
2018-09-18T00:42:36.553Z,1001.85
2018-09-18T00:43:36.535Z,1001.83
2018-09-18T00:44:36.521Z,1001.87
2018-09-18T00:45:36.542Z,1001.85
2018-09-18T00:46:36.504Z,1001.86
2018-09-18T00:47:36.496Z,1001.81
2018-09-18T00:48:36.486Z,1001.83
2018-09-18T00:49:36.470Z,1001.82
2018-09-18T00:50:36.486Z,1001.80
2018-09-18T00:51:36.449Z,1001.83
2018-09-18T00:52:36.435Z,1001.79
2018-09-18T00:53:36.424Z,1001.80
2018-09-18T00:54:36.410Z,1001.74
2018-09-18T00:55:36.403Z,1001.78
2018-09-18T00:56:36.407Z,1001.79
2018-09-18T00:57:36.383Z,1001.70
2018-09-18T00:58:36.362Z,1001.76
2018-09-18T00:59:36.359Z,1001.76
2018-09-18T01:00:36.348Z,1001.70
2018-09-18T01:01:36.358Z,1001.76
2018-09-18T01:02:36.327Z,1001.73
2018-09-18T01:03:36.314Z,1001.78
2018-09-18T01:04:36.295Z,1001.69
2018-09-18T01:05:36.285Z,1001.68
2018-09-18T01:06:36.274Z,1001.72
2018-09-18T01:07:36.291Z,1001.73
2018-09-18T01:08:36.247Z,1001.70
2018-09-18T01:09:36.246Z,1001.73
2018-09-18T01:10:36.232Z,1001.68
2018-09-18T01:11:36.217Z,1001.68
2018-09-18T01:12:36.234Z,1001.72
2018-09-18T01:13:36.192Z,1001.63
2018-09-18T01:14:36.193Z,1001.70
2018-09-18T01:15:36.168Z,1001.65
2018-09-18T01:16:36.160Z,1001.65
2018-09-18T06:17:37.344Z,1000.46
2018-09-18T06:18:37.365Z,1000.41
2018-09-18T06:19:37.299Z,1000.43
2018-09-18T06:20:37.288Z,1000.38
2018-09-18T06:21:37.267Z,1000.44
2018-09-18T06:22:37.294Z,1000.45
2018-09-18T06:23:37.243Z,1000.46
2018-09-18T06:24:37.241Z,1000.46
2018-09-18T06:25:37.231Z,1000.46
2018-09-18T06:26:37.218Z,1000.49
2018-09-18T06:27:37.203Z,1000.50
2018-09-18T06:28:37.208Z,1000.45
2018-09-18T06:29:37.189Z,1000.48
2018-09-18T06:30:37.163Z,1000.46
2018-09-18T06:31:37.160Z,1000.40
2018-09-18T06:32:37.142Z,1000.45
2018-09-18T06:33:37.157Z,1000.46
2018-09-18T06:34:37.120Z,1000.46
2018-09-18T06:35:37.110Z,1000.45
2018-09-18T06:36:37.099Z,1000.46
2018-09-18T06:37:37.086Z,1000.47
2018-09-18T06:38:37.106Z,1000.41
2018-09-18T06:39:37.064Z,1000.49
2018-09-18T06:40:37.049Z,1000.46
2018-09-18T06:41:37.039Z,1000.46
2018-09-18T06:42:37.030Z,1000.45
2018-09-18T06:43:37.017Z,1000.41
2018-09-18T06:44:37.033Z,1000.50
2018-09-18T06:45:36.991Z,1000.44
2018-09-18T06:46:36.989Z,1000.47
2018-09-18T06:47:36.966Z,1000.49
2018-09-18T06:48:36.956Z,1000.55
2018-09-18T06:49:36.984Z,1000.49
2018-09-18T06:50:36.940Z,1000.56
2018-09-18T06:51:36.926Z,1000.57
2018-09-18T06:52:36.920Z,1000.60
2018-09-18T06:53:36.900Z,1000.58
2018-09-18T06:54:36.942Z,1000.52
2018-09-18T06:55:36.905Z,1000.59
2018-09-18T06:56:36.868Z,1000.61
2018-09-18T06:57:36.860Z,1000.51
2018-09-18T06:58:36.851Z,1000.68
2018-09-18T06:59:36.828Z,1000.55
2018-09-18T07:00:36.847Z,1000.49
2018-09-18T07:01:36.809Z,1000.54
2018-09-18T07:02:36.795Z,1000.50
2018-09-18T07:03:36.792Z,1000.47
2018-09-18T07:04:36.775Z,1000.48
2018-09-18T07:05:36.803Z,1000.59
2018-09-18T07:06:36.759Z,1000.53
2018-09-18T07:07:36.738Z,1000.51
2018-09-18T07:08:36.732Z,1000.63
2018-09-18T07:09:36.718Z,1000.52
2018-09-18T07:10:36.704Z,1000.66
2018-09-18T07:11:36.725Z,1000.54
2018-09-18T07:12:36.682Z,1000.54
2018-09-18T07:13:36.681Z,1000.53
2018-09-18T07:14:36.668Z,1000.51
2018-09-18T07:15:36.682Z,1000.53
2018-09-18T07:16:36.646Z,1000.58
2018-09-18T07:17:36.626Z,1000.53
2018-09-18T07:18:36.617Z,1000.53
2018-09-18T07:19:36.611Z,1000.55
2018-09-18T07:20:36.601Z,1000.59
2018-09-18T07:21:36.613Z,1000.57
2018-09-18T07:22:36.570Z,1000.53
2018-09-18T07:23:36.568Z,1000.53
2018-09-18T07:24:36.558Z,1000.57
2018-09-18T07:25:36.545Z,1000.64
2018-09-18T07:26:36.578Z,1000.60
2018-09-18T07:27:36.512Z,1000.55
2018-09-18T07:28:36.505Z,1000.54
2018-09-18T07:29:36.498Z,1000.62
2018-09-18T07:30:36.482Z,1000.56
2018-09-18T07:31:36.467Z,1000.73
2018-09-18T07:32:36.483Z,1000.62
2018-09-18T07:33:36.448Z,1000.58
2018-09-18T07:34:36.440Z,1000.61
2018-09-18T07:35:36.426Z,1000.64
2018-09-18T07:36:36.413Z,1000.66
2018-09-18T07:37:36.435Z,1000.62
2018-09-18T07:38:36.391Z,1000.67
2018-09-18T07:39:36.383Z,1000.69
2018-09-18T07:40:36.373Z,1000.65
2018-09-18T07:41:36.358Z,1000.65
2018-09-18T07:42:36.351Z,1000.66
2018-09-18T07:43:36.358Z,1000.64
2018-09-18T07:44:36.322Z,1000.63
2018-09-18T07:45:36.319Z,1000.65
2018-09-18T07:46:36.300Z,1000.65
2018-09-18T07:47:36.290Z,1000.69
2018-09-18T07:48:36.307Z,1000.65
2018-09-18T07:49:36.267Z,1000.68
2018-09-18T07:50:36.265Z,1000.64
2018-09-18T07:51:36.244Z,1000.67
2018-09-18T07:52:36.242Z,1000.63
2018-09-18T07:53:36.245Z,1000.75
2018-09-18T07:54:36.220Z,1000.66
2018-09-18T07:55:36.202Z,1000.69
2018-09-18T07:56:36.189Z,1000.69
2018-09-18T07:57:36.188Z,1000.66
2018-09-18T07:58:36.190Z,1000.69
2018-09-18T07:59:36.166Z,1000.75
2018-09-18T08:00:36.148Z,1000.65
2018-09-18T08:01:36.150Z,1000.71
2018-09-18T08:02:36.132Z,1000.61
2018-09-18T08:03:36.145Z,1000.63
2018-09-18T08:04:36.104Z,1000.63
2018-09-18T08:05:36.097Z,1000.63
2018-09-18T08:06:36.090Z,1000.70
2018-09-18T08:07:36.074Z,1000.67
2018-09-18T08:08:36.064Z,1000.65
2018-09-18T08:09:36.072Z,1000.73
2018-09-18T08:10:36.042Z,1000.65
2018-09-18T08:11:36.028Z,1000.68
2018-09-18T08:12:36.020Z,1000.64
2018-09-18T08:13:36.037Z,1000.75
2018-09-18T08:14:35.995Z,1000.67
2018-09-18T08:15:35.989Z,1000.67
2018-09-18T08:16:35.973Z,1000.69
2018-09-18T08:17:35.958Z,1000.63
2018-09-18T08:18:35.957Z,1000.66
2018-09-18T08:19:36.237Z,1000.74
2018-09-18T08:20:35.925Z,1000.70
2018-09-18T08:21:35.924Z,1000.70
2018-09-18T08:22:35.910Z,1000.62
2018-09-18T08:23:35.901Z,1000.60
2018-09-18T08:24:35.908Z,1000.66
2018-09-18T08:25:35.898Z,1000.67
2018-09-18T08:26:35.868Z,1000.68
2018-09-18T08:27:35.849Z,1000.62
2018-09-18T08:28:35.844Z,1000.62
2018-09-18T08:29:35.853Z,1000.67
2018-09-18T08:30:35.818Z,1000.70
2018-09-18T08:31:35.814Z,1000.80
2018-09-18T08:32:35.878Z,1000.67
2018-09-18T08:33:35.794Z,1000.70
2018-09-18T08:34:35.794Z,1000.64
2018-09-18T08:35:35.764Z,1000.64
2018-09-18T08:36:35.753Z,1000.71
2018-09-18T08:37:35.740Z,1000.73
2018-09-18T08:38:35.736Z,1000.64
2018-09-18T08:39:35.793Z,1000.64
2018-09-18T08:40:35.707Z,1000.67
2018-09-18T08:41:35.704Z,1000.67
2018-09-18T08:42:35.691Z,1000.76
2018-09-18T08:43:35.678Z,1000.72
2018-09-18T08:44:35.694Z,1000.72
2018-09-18T08:45:35.661Z,1000.72
2018-09-18T08:46:35.645Z,1000.69
2018-09-18T08:47:35.637Z,1000.73
2018-09-18T08:48:35.630Z,1000.70
2018-09-18T08:49:35.632Z,1000.73
2018-09-18T08:50:35.617Z,1000.73
2018-09-18T08:51:35.673Z,1000.68
2018-09-18T08:52:35.653Z,1000.77
2018-09-18T08:53:35.570Z,1000.69
2018-09-18T08:54:35.650Z,1000.72
2018-09-18T08:55:35.548Z,1000.71
2018-09-18T08:56:35.567Z,1000.74
2018-09-18T08:57:35.525Z,1000.69
2018-09-18T08:58:35.540Z,1000.79
2018-09-18T08:59:35.537Z,1000.81
2018-09-18T09:00:35.493Z,1000.72
2018-09-18T09:01:35.492Z,1000.70
2018-09-18T09:02:35.489Z,1000.73
2018-09-18T09:03:35.473Z,1000.69
2018-09-18T09:04:35.482Z,1000.73
2018-09-18T09:05:35.482Z,1000.85
2018-09-18T09:06:35.493Z,1000.80
2018-09-18T09:07:35.514Z,1000.79
2018-09-18T09:08:35.497Z,1000.79
2018-09-18T09:09:35.496Z,1000.86
2018-09-18T09:10:35.423Z,1000.83
2018-09-18T09:11:35.383Z,1000.92
2018-09-18T09:12:35.367Z,1000.82
2018-09-18T09:13:35.379Z,1000.88
2018-09-18T09:14:35.433Z,1000.83
2018-09-18T09:15:35.369Z,1000.89
2018-09-18T09:16:35.345Z,1000.87
2018-09-18T09:17:35.332Z,1000.91
2018-09-18T09:18:35.413Z,1000.87
2018-09-18T09:19:35.296Z,1000.86
2018-09-18T09:20:35.312Z,1000.95
2018-09-18T09:21:35.291Z,1000.98
2018-09-18T09:22:35.351Z,1000.91
2018-09-18T09:23:35.249Z,1000.89
2018-09-18T09:24:35.255Z,1000.87
2018-09-18T09:25:35.266Z,1000.89
2018-09-18T09:26:35.351Z,1000.93
2018-09-18T09:27:35.269Z,1000.95
2018-09-18T09:28:35.228Z,1001.04
2018-09-18T09:29:35.222Z,1000.91
2018-09-18T09:30:35.207Z,1001.00
2018-09-18T09:31:35.198Z,1000.96
2018-09-18T09:32:35.154Z,1000.97
2018-09-18T09:33:35.180Z,1000.94
2018-09-18T09:34:35.147Z,1000.98
2018-09-18T09:35:35.156Z,1000.86
2018-09-18T09:36:35.179Z,1000.89
2018-09-18T09:37:35.118Z,1001.08
2018-09-18T09:38:35.128Z,1000.84
2018-09-18T09:39:35.082Z,1000.85
2018-09-18T09:40:35.076Z,1000.83
2018-09-18T09:41:35.058Z,1000.80
2018-09-18T09:42:35.078Z,1000.84
2018-09-18T09:43:35.042Z,1000.91
2018-09-18T09:44:35.032Z,1000.86
2018-09-18T09:45:35.019Z,1000.87
2018-09-18T09:46:35.004Z,1000.83
2018-09-18T09:47:35.026Z,1000.95
2018-09-18T09:48:34.988Z,1000.86
2018-09-18T09:49:34.980Z,1000.90
2018-09-18T09:50:34.974Z,1000.84
2018-09-18T09:51:35.028Z,1000.95
2018-09-18T09:52:34.978Z,1000.93
2018-09-18T09:53:34.941Z,1000.81
2018-09-18T09:54:34.925Z,1000.77
2018-09-18T09:55:34.912Z,1000.84
2018-09-18T09:56:34.909Z,1000.80
2018-09-18T09:57:34.895Z,1000.81
2018-09-18T09:58:34.967Z,1000.82
2018-09-18T09:59:34.875Z,1000.80
2018-09-18T10:00:34.870Z,1000.80
2018-09-18T10:01:34.852Z,1000.78
2018-09-18T10:02:34.849Z,1000.77
2018-09-18T10:03:34.851Z,1000.76
2018-09-18T10:04:34.829Z,1000.77
2018-09-18T10:05:34.813Z,1000.72
2018-09-18T10:06:34.805Z,1000.74
2018-09-18T10:07:34.791Z,1000.77
2018-09-18T10:08:34.802Z,1000.80
2018-09-18T10:09:34.771Z,1000.86
2018-09-18T10:10:34.872Z,1000.83
2018-09-18T10:11:34.751Z,1000.88
2018-09-18T10:12:34.747Z,1000.90
2018-09-18T10:13:34.749Z,1000.80
2018-09-18T10:14:34.727Z,1000.88
2018-09-18T10:15:34.762Z,1000.82
2018-09-18T10:16:34.705Z,1000.85
2018-09-18T10:17:34.698Z,1000.90
2018-09-18T10:18:34.702Z,1000.76
2018-09-18T10:19:34.678Z,1000.78
2018-09-18T10:20:34.668Z,1000.72
2018-09-18T10:21:34.649Z,1000.78
2018-09-18T10:22:34.641Z,1000.76
2018-09-18T10:23:34.673Z,1000.74
2018-09-18T10:24:34.635Z,1000.79
2018-09-18T10:25:34.612Z,1000.84
2018-09-18T10:26:34.621Z,1000.74
2018-09-18T10:27:34.613Z,1000.73
2018-09-18T10:28:34.619Z,1000.77
2018-09-18T10:29:34.600Z,1000.77
2018-09-18T10:30:34.563Z,1000.76
2018-09-18T10:31:34.578Z,1000.89
2018-09-18T10:32:34.569Z,1000.75
2018-09-18T10:33:34.538Z,1000.80
2018-09-18T10:34:34.564Z,1000.74
2018-09-18T10:35:34.512Z,1000.70
2018-09-18T10:36:34.525Z,1000.67
2018-09-18T10:37:34.497Z,1000.68
2018-09-18T10:38:34.503Z,1000.75
2018-09-18T10:39:34.514Z,1000.70
2018-09-18T10:40:34.476Z,1000.77
2018-09-18T10:41:34.668Z,1000.75
2018-09-18T10:42:34.447Z,1000.75
2018-09-18T10:43:34.468Z,1000.75
2018-09-18T10:44:34.463Z,1000.79
2018-09-18T10:45:34.416Z,1000.78
2018-09-18T10:46:34.424Z,1000.81
2018-09-18T10:47:34.398Z,1000.77
2018-09-18T10:48:34.383Z,1000.79
2018-09-18T10:49:34.494Z,1000.80
2018-09-18T10:50:34.395Z,1000.79
2018-09-18T10:51:34.355Z,1000.77
2018-09-18T10:52:34.363Z,1000.76
2018-09-18T10:53:34.336Z,1000.75
2018-09-18T10:54:34.327Z,1000.76
2018-09-18T10:55:34.405Z,1000.82
2018-09-18T10:56:34.305Z,1000.82
2018-09-18T10:57:34.298Z,1000.71
2018-09-18T10:58:34.292Z,1000.80
2018-09-18T10:59:34.274Z,1000.76
2018-09-18T11:00:34.304Z,1000.77
2018-09-18T11:01:34.264Z,1000.78
2018-09-18T11:02:34.272Z,1000.79
2018-09-18T11:03:34.243Z,1000.74
2018-09-18T11:04:34.238Z,1000.77
2018-09-18T11:05:34.220Z,1000.69
2018-09-18T11:06:34.237Z,1000.73
2018-09-18T11:07:34.272Z,1000.77
2018-09-18T11:08:34.224Z,1000.70
2018-09-18T11:09:34.212Z,1000.63
2018-09-18T11:10:34.185Z,1000.61
2018-09-18T11:11:34.207Z,1000.68
2018-09-18T11:12:34.146Z,1000.74
2018-09-18T11:13:34.221Z,1000.78
2018-09-18T11:14:34.154Z,1000.86
2018-09-18T11:15:34.184Z,1000.72
2018-09-18T11:16:34.168Z,1000.64
2018-09-18T11:17:34.107Z,1000.68
2018-09-18T11:18:34.096Z,1000.68
2018-09-18T11:19:34.165Z,1000.69
2018-09-18T11:20:34.096Z,1000.73
2018-09-18T11:21:34.183Z,1000.61
2018-09-18T11:22:34.072Z,1000.58
2018-09-18T11:23:34.038Z,1000.58
2018-09-18T11:24:34.028Z,1000.58
2018-09-18T11:25:34.020Z,1000.64
2018-09-18T11:26:34.013Z,1000.64
2018-09-18T11:27:34.061Z,1000.62
2018-09-18T11:28:33.999Z,1000.56
2018-09-18T11:29:33.979Z,1000.55
2018-09-18T11:30:33.976Z,1000.56
2018-09-18T11:31:33.977Z,1000.48
2018-09-18T11:32:34.018Z,1000.42
2018-09-18T11:33:34.025Z,1000.41
2018-09-18T11:34:33.926Z,1000.54
2018-09-18T11:35:33.924Z,1000.42
2018-09-18T11:36:33.911Z,1000.41
2018-09-18T11:37:33.904Z,1000.50
2018-09-18T11:38:33.910Z,1000.33
2018-09-18T11:39:33.881Z,1000.44
2018-09-18T11:40:33.872Z,1000.37
2018-09-18T11:41:33.857Z,1000.47
2018-09-18T11:42:33.854Z,1000.63
2018-09-18T11:43:33.867Z,1000.32
2018-09-18T11:44:33.829Z,1000.34
2018-09-18T11:45:33.891Z,1000.40
2018-09-18T11:46:33.880Z,1000.47
2018-09-18T11:47:33.805Z,1000.36
2018-09-18T11:48:33.796Z,1000.34
2018-09-18T11:49:33.801Z,1000.30
2018-09-18T11:50:33.771Z,1000.31
2018-09-18T11:51:33.764Z,1000.32
2018-09-18T11:52:33.754Z,1000.40
2018-09-18T11:53:33.742Z,1000.22
2018-09-18T11:54:33.759Z,1000.35
2018-09-18T11:55:33.727Z,1000.34
2018-09-18T11:56:33.761Z,1000.24
2018-09-18T11:57:33.704Z,1000.20
2018-09-18T11:58:33.698Z,1000.23
2018-09-18T11:59:33.681Z,1000.22
2018-09-18T12:00:33.695Z,1000.18
2018-09-18T12:01:33.667Z,1000.24
2018-09-18T12:02:33.695Z,1000.29
2018-09-18T12:03:33.647Z,1000.25
2018-09-18T12:04:33.645Z,1000.23
2018-09-18T12:05:33.646Z,1000.17
2018-09-18T12:06:33.611Z,1000.21
2018-09-18T12:07:33.612Z,1000.13
2018-09-18T12:08:33.622Z,1000.06
2018-09-18T12:09:33.584Z,1000.17
2018-09-18T12:10:33.600Z,1000.19
2018-09-18T12:11:33.603Z,1000.19
2018-09-18T12:12:33.555Z,1000.27
2018-09-18T12:13:33.549Z,1000.18
2018-09-18T12:14:33.536Z,1000.15
2018-09-18T12:15:33.558Z,1000.12
2018-09-18T12:16:33.522Z,1000.06
2018-09-18T12:17:33.511Z,999.96
2018-09-18T12:18:33.503Z,999.88
2018-09-18T12:19:33.484Z,999.95
2018-09-18T12:20:33.477Z,999.98
2018-09-18T12:21:33.489Z,999.87
2018-09-18T12:22:33.628Z,999.95
2018-09-18T12:23:33.449Z,999.93
2018-09-18T12:24:33.443Z,999.99
2018-09-18T12:25:33.424Z,999.89
2018-09-18T12:26:33.441Z,999.93
2018-09-18T12:27:33.444Z,999.89
2018-09-18T12:28:33.448Z,999.84
2018-09-18T12:29:33.388Z,999.92
2018-09-18T12:30:33.375Z,1000.08
2018-09-18T12:31:33.381Z,999.96
2018-09-18T12:32:33.357Z,1000.05
2018-09-18T12:33:33.345Z,1000.00
2018-09-18T12:34:33.333Z,1000.00
2018-09-18T12:35:33.437Z,999.89
2018-09-18T12:36:33.339Z,1000.01
2018-09-18T12:37:33.298Z,1000.03
2018-09-18T12:38:33.295Z,1000.05
2018-09-18T12:39:33.279Z,999.93
2018-09-18T12:40:33.267Z,1000.04
2018-09-18T12:41:33.394Z,999.93
2018-09-18T12:42:33.479Z,999.99
2018-09-18T12:43:33.252Z,999.89
2018-09-18T12:44:33.227Z,999.89
2018-09-18T12:45:33.220Z,999.89
2018-09-18T12:46:33.234Z,999.96
2018-09-18T12:47:33.195Z,1000.04
2018-09-18T12:48:33.190Z,999.85
2018-09-18T12:49:33.406Z,1000.06
2018-09-18T12:50:33.283Z,999.86
2018-09-18T12:51:33.179Z,999.79
2018-09-18T12:52:33.140Z,999.80
2018-09-18T12:53:33.201Z,999.78
2018-09-18T12:54:33.127Z,999.79
2018-09-18T12:55:33.113Z,999.82
2018-09-18T12:56:33.107Z,999.76
2018-09-18T12:57:33.219Z,999.76
2018-09-18T12:58:33.182Z,999.75
2018-09-18T12:59:33.119Z,999.73
2018-09-18T13:00:33.068Z,999.74
2018-09-18T13:01:33.058Z,999.81
2018-09-18T13:02:33.071Z,999.84
2018-09-18T13:03:33.036Z,999.83
2018-09-18T13:04:33.024Z,999.77
2018-09-18T13:05:33.030Z,999.74
2018-09-18T13:06:33.224Z,999.80
2018-09-18T13:07:33.022Z,999.75
2018-09-18T13:08:32.987Z,999.85
2018-09-18T13:09:32.980Z,999.87
2018-09-18T13:10:32.973Z,999.82
2018-09-18T13:11:32.976Z,999.74
2018-09-18T13:12:32.984Z,999.79
2018-09-18T13:13:33.007Z,999.75
2018-09-18T13:14:32.930Z,999.73
2018-09-18T13:15:32.953Z,999.75
2018-09-18T13:16:32.919Z,999.70
2018-09-18T13:17:33.053Z,999.69
2018-09-18T13:18:32.888Z,999.74
2018-09-18T13:19:32.881Z,999.80
2018-09-18T13:20:32.874Z,999.86
2018-09-18T13:21:32.884Z,999.78
2018-09-18T13:22:32.861Z,999.84
2018-09-18T13:23:32.867Z,999.84
2018-09-18T13:24:32.832Z,999.73
2018-09-18T13:25:32.819Z,999.71
2018-09-18T13:26:32.816Z,999.67
2018-09-18T13:27:32.806Z,999.76
2018-09-18T13:28:32.791Z,999.74
2018-09-18T13:29:32.807Z,999.80
2018-09-18T13:30:32.816Z,999.78
2018-09-18T13:31:32.762Z,999.77
2018-09-18T13:32:32.767Z,999.67
2018-09-18T13:33:32.744Z,999.78
2018-09-18T13:34:32.762Z,999.74
2018-09-18T13:35:32.726Z,999.67
2018-09-18T13:36:32.855Z,999.73
2018-09-18T13:37:32.706Z,999.74
2018-09-18T13:38:32.693Z,999.76
2018-09-18T13:39:32.679Z,999.72
2018-09-18T13:40:32.700Z,999.74
2018-09-18T13:41:32.657Z,999.77
2018-09-18T13:42:32.656Z,999.78
2018-09-18T13:43:32.645Z,999.81
2018-09-18T13:44:32.633Z,999.81
2018-09-18T13:45:32.645Z,999.79
2018-09-18T13:46:32.651Z,999.78
2018-09-18T13:47:32.601Z,999.80
2018-09-18T13:48:32.591Z,999.82
2018-09-18T13:49:32.583Z,999.83
2018-09-18T13:50:32.619Z,999.79
2018-09-18T13:51:32.565Z,999.83
2018-09-18T13:52:32.552Z,999.77
2018-09-18T13:53:32.544Z,999.80
2018-09-18T13:54:32.533Z,999.74
2018-09-18T13:55:32.543Z,999.74
2018-09-18T13:56:32.679Z,999.76
2018-09-18T13:57:32.578Z,999.67
2018-09-18T13:58:32.497Z,999.77
2018-09-18T13:59:32.529Z,999.71
2018-09-18T14:00:32.479Z,999.73
2018-09-18T14:01:32.625Z,999.80
2018-09-18T14:02:32.463Z,999.84
2018-09-18T14:03:32.444Z,999.83
2018-09-18T14:04:32.431Z,999.84
2018-09-18T14:05:32.467Z,999.76
2018-09-18T14:06:32.436Z,999.80
2018-09-18T14:07:32.412Z,999.82
2018-09-18T14:08:32.389Z,999.70
2018-09-18T14:09:32.451Z,999.73
2018-09-18T14:10:32.368Z,999.76
2018-09-18T14:11:32.360Z,999.80
2018-09-18T14:12:32.377Z,999.76
2018-09-18T14:13:32.342Z,999.72
2018-09-18T14:14:32.372Z,999.74
2018-09-18T14:15:32.319Z,999.72
2018-09-18T14:16:32.303Z,999.82
2018-09-18T14:17:32.323Z,999.75
2018-09-18T14:18:32.283Z,999.76
2018-09-18T14:19:32.283Z,999.77
2018-09-18T14:20:32.272Z,999.94
2018-09-18T14:21:32.253Z,999.77
2018-09-18T14:22:32.274Z,999.82
2018-09-18T14:23:32.232Z,999.82
2018-09-18T14:24:32.228Z,999.81
2018-09-18T14:25:32.275Z,999.85
2018-09-18T14:26:32.393Z,999.84
2018-09-18T14:27:32.224Z,999.94
2018-09-18T14:28:32.190Z,999.96
2018-09-18T14:29:32.175Z,999.86
2018-09-18T14:30:32.163Z,999.83
2018-09-18T14:31:32.168Z,999.83
2018-09-18T14:32:32.150Z,999.85
2018-09-18T14:33:32.201Z,999.82
2018-09-18T14:34:32.121Z,999.81
2018-09-18T14:35:32.114Z,999.92
2018-09-18T14:36:32.097Z,999.99
2018-09-18T14:37:32.097Z,999.87
2018-09-18T14:38:32.105Z,999.86
2018-09-18T14:39:32.072Z,999.90
2018-09-18T14:40:32.164Z,999.77
2018-09-18T14:41:32.055Z,999.85
2018-09-18T14:42:32.042Z,999.77
2018-09-18T14:43:32.048Z,999.90
2018-09-18T14:44:32.023Z,999.82
2018-09-18T14:45:32.004Z,999.79
2018-09-18T14:46:31.995Z,999.74
2018-09-18T14:47:31.988Z,999.77
2018-09-18T14:48:32.005Z,999.72
2018-09-18T14:49:31.970Z,999.72
2018-09-18T14:50:31.956Z,999.71
2018-09-18T14:51:31.944Z,999.65
2018-09-18T14:52:31.933Z,999.69
2018-09-18T14:53:31.924Z,999.75
2018-09-18T14:54:31.939Z,999.76
2018-09-18T14:55:31.898Z,999.77
2018-09-18T14:56:31.889Z,999.73
2018-09-18T14:57:31.876Z,999.89
2018-09-18T14:58:31.871Z,999.73
2018-09-18T14:59:31.877Z,999.70
2018-09-18T15:00:31.850Z,999.79
2018-09-18T15:01:31.834Z,999.75
2018-09-18T15:02:31.825Z,999.74
2018-09-18T15:03:31.810Z,999.74
2018-09-18T15:04:31.833Z,999.79
2018-09-18T15:05:31.794Z,999.70
2018-09-18T15:06:31.785Z,999.76
2018-09-18T15:07:31.765Z,999.79
2018-09-18T15:08:31.755Z,999.91
2018-09-18T15:09:31.753Z,999.76
2018-09-18T15:10:31.767Z,999.86
2018-09-18T15:11:31.727Z,999.88
2018-09-18T15:12:31.711Z,999.98
2018-09-18T15:13:31.706Z,999.94
2018-09-18T15:14:31.733Z,999.85
2018-09-18T15:15:31.801Z,999.86
2018-09-18T15:16:31.678Z,999.88
2018-09-18T15:17:31.656Z,999.97
2018-09-18T15:18:31.651Z,999.91
2018-09-18T15:19:31.640Z,999.95
2018-09-18T15:20:31.623Z,999.91
2018-09-18T15:21:31.650Z,1000.01
2018-09-18T15:22:31.606Z,999.83
2018-09-18T15:23:31.593Z,999.92
2018-09-18T15:24:31.589Z,999.94
2018-09-18T15:25:31.573Z,1000.01
2018-09-18T15:26:31.583Z,999.95
2018-09-18T15:27:31.649Z,999.96
2018-09-18T15:28:31.538Z,999.95
2018-09-18T15:29:31.530Z,1000.01
2018-09-18T15:30:31.522Z,1000.07
2018-09-18T15:31:31.525Z,1000.00
2018-09-18T15:32:31.498Z,999.93
2018-09-18T15:33:31.520Z,999.98
2018-09-18T15:34:31.469Z,1000.05
2018-09-18T15:35:31.466Z,999.99
2018-09-18T15:36:31.485Z,1000.00
2018-09-18T15:37:31.441Z,999.97
2018-09-18T15:38:31.433Z,999.97
2018-09-18T15:39:31.428Z,999.98
2018-09-18T15:40:31.408Z,1000.02
2018-09-18T15:41:31.394Z,1000.00
2018-09-18T15:42:31.406Z,1000.03
2018-09-18T15:43:31.378Z,1000.01
2018-09-18T15:44:31.357Z,1000.08
2018-09-18T15:45:31.373Z,1000.12
2018-09-18T15:46:31.340Z,1000.15
2018-09-18T15:47:31.347Z,1000.07
2018-09-18T15:48:31.348Z,1000.06
2018-09-18T15:49:31.308Z,1000.08
2018-09-18T15:50:31.296Z,1000.09
2018-09-18T15:51:31.355Z,1000.03
2018-09-18T15:52:31.295Z,1000.10
2018-09-18T15:53:31.259Z,1000.04
2018-09-18T15:54:31.250Z,1000.07
2018-09-18T15:55:31.236Z,1000.10
2018-09-18T15:56:31.230Z,1000.14
2018-09-18T15:57:31.232Z,1000.14
2018-09-18T15:58:31.214Z,1000.15
2018-09-18T15:59:31.190Z,1000.18
2018-09-18T16:00:31.178Z,1000.15
2018-09-18T16:01:31.211Z,1000.09
2018-09-18T16:02:31.227Z,1000.11
2018-09-18T16:03:31.142Z,1000.12
2018-09-18T16:04:31.137Z,1000.17
2018-09-18T16:05:31.125Z,1000.21
2018-09-18T16:06:31.116Z,1000.14
2018-09-18T16:07:31.099Z,1000.14
2018-09-18T16:08:31.119Z,1000.13
2018-09-18T16:09:31.077Z,1000.18
2018-09-18T16:10:31.067Z,1000.19
2018-09-18T16:11:31.060Z,1000.23
2018-09-18T16:12:31.045Z,1000.25
2018-09-18T16:13:31.059Z,1000.23
2018-09-18T16:14:31.021Z,1000.23
2018-09-18T16:15:31.035Z,1000.20
2018-09-18T16:16:31.057Z,1000.24
2018-09-18T16:17:31.006Z,1000.21
2018-09-18T16:18:31.003Z,1000.22
2018-09-18T16:19:31.051Z,1000.20
2018-09-18T16:20:30.967Z,1000.22
2018-09-18T16:21:30.940Z,1000.18
2018-09-18T16:22:30.933Z,1000.24
2018-09-18T16:23:30.974Z,1000.21
2018-09-18T16:24:30.912Z,1000.22
2018-09-18T16:25:30.966Z,1000.24
2018-09-18T16:26:30.886Z,1000.27
2018-09-18T16:27:30.883Z,1000.23
2018-09-18T16:28:30.895Z,1000.18
2018-09-18T16:29:30.871Z,1000.23
2018-09-18T16:30:30.844Z,1000.32
2018-09-18T16:31:30.831Z,1000.23
2018-09-18T16:32:30.820Z,1000.31
2018-09-18T16:33:30.811Z,1000.36
2018-09-18T16:34:30.829Z,1000.36
2018-09-18T16:35:30.789Z,1000.32
2018-09-18T16:36:30.776Z,1000.35
2018-09-18T16:37:30.781Z,1000.34
2018-09-18T16:38:30.752Z,1000.31
2018-09-18T16:39:30.743Z,1000.35
2018-09-18T16:40:30.851Z,1000.39
2018-09-18T16:41:30.727Z,1000.31
2018-09-18T16:42:30.757Z,1000.36
2018-09-18T16:43:30.696Z,1000.36
2018-09-18T16:44:30.690Z,1000.35
2018-09-18T16:45:30.702Z,1000.36
2018-09-18T16:46:30.683Z,1000.36
2018-09-18T16:47:30.649Z,1000.31
2018-09-18T16:48:30.663Z,1000.35
2018-09-18T16:49:30.627Z,1000.38
2018-09-18T16:50:30.650Z,1000.34
2018-09-18T16:51:30.609Z,1000.36
2018-09-18T16:52:30.643Z,1000.38
2018-09-18T16:53:30.589Z,1000.31
2018-09-18T16:54:30.683Z,1000.41
2018-09-18T16:55:30.612Z,1000.44
2018-09-18T16:56:30.556Z,1000.41
2018-09-18T16:57:30.541Z,1000.38
2018-09-18T16:58:30.590Z,1000.39
2018-09-18T16:59:30.514Z,1000.42
2018-09-18T17:00:30.557Z,1000.47
2018-09-18T17:01:30.537Z,1000.49
2018-09-18T17:02:30.502Z,1000.41
2018-09-18T17:03:30.473Z,1000.41
2018-09-18T17:04:30.475Z,1000.40
2018-09-18T17:05:30.456Z,1000.44
2018-09-18T17:06:30.491Z,1000.49
2018-09-18T17:07:30.460Z,1000.42
2018-09-18T17:08:30.423Z,1000.48
2018-09-18T17:09:30.404Z,1000.45
2018-09-18T17:10:30.413Z,1000.49
2018-09-18T17:11:30.385Z,1000.59